sensor_id;sensor_type;location;lat;lon;timestamp;temperature;humidity
47350;DHT22;33088;51.982;5.872;2022-10-17T00:00:43;13.60;99.90
47350;DHT22;33088;51.982;5.872;2022-10-17T00:03:09;13.40;99.90
47350;DHT22;33088;51.982;5.872;2022-10-17T00:05:41;13.60;99.90
47350;DHT22;33088;51.982;5.872;2022-10-17T00:08:09;13.60;99.90
47350;DHT22;33088;51.982;5.872;2022-10-17T00:10:35;13.70;99.90
47350;DHT22;33088;51.982;5.872;2022-10-17T00:13:01;13.60;99.90
47350;DHT22;33088;51.982;5.872;2022-10-17T00:15:26;13.60;99.90
47350;DHT22;33088;51.982;5.872;2022-10-17T00:17:52;13.60;99.90
47350;DHT22;33088;51.982;5.872;2022-10-17T00:20:18;13.50;99.90
47350;DHT22;33088;51.982;5.872;2022-10-17T00:22:43;13.50;99.90
47350;DHT22;33088;51.982;5.872;2022-10-17T00:25:09;13.50;99.90
47350;DHT22;33088;51.982;5.872;2022-10-17T00:27:39;13.70;99.90
47350;DHT22;33088;51.982;5.872;2022-10-17T00:30:08;13.60;99.90
47350;DHT22;33088;51.982;5.872;2022-10-17T00:32:34;13.60;99.90
47350;DHT22;33088;51.982;5.872;2022-10-17T00:35:00;13.60;99.90
47350;DHT22;33088;51.982;5.872;2022-10-17T00:37:26;13.60;99.90
47350;DHT22;33088;51.982;5.872;2022-10-17T00:39:52;13.50;99.90
47350;DHT22;33088;51.982;5.872;2022-10-17T00:42:18;13.50;99.90
47350;DHT22;33088;51.982;5.872;2022-10-17T00:47:16;13.50;99.90
47350;DHT22;33088;51.982;5.872;2022-10-17T00:49:44;13.60;99.90
47350;DHT22;33088;51.982;5.872;2022-10-17T00:52:22;13.50;99.90
47350;DHT22;33088;51.982;5.872;2022-10-17T00:54:53;13.60;99.90
47350;DHT22;33088;51.982;5.872;2022-10-17T00:57:20;13.50;99.90
47350;DHT22;33088;51.982;5.872;2022-10-17T00:59:50;13.60;99.90
47350;DHT22;33088;51.982;5.872;2022-10-17T01:02:18;13.70;99.90
47350;DHT22;33088;51.982;5.872;2022-10-17T01:04:48;13.60;99.90
47350;DHT22;33088;51.982;5.872;2022-10-17T01:07:15;13.60;99.90
47350;DHT22;33088;51.982;5.872;2022-10-17T01:09:41;13.60;99.90
47350;DHT22;33088;51.982;5.872;2022-10-17T01:21:38;13.70;99.90
47350;DHT22;33088;51.982;5.872;2022-10-17T01:32:12;13.70;99.90
47350;DHT22;33088;51.982;5.872;2022-10-17T01:34:48;13.70;99.90
47350;DHT22;33088;51.982;5.872;2022-10-17T01:37:32;13.80;99.90
47350;DHT22;33088;51.982;5.872;2022-10-17T01:40:08;13.80;99.90
47350;DHT22;33088;51.982;5.872;2022-10-17T01:45:47;13.80;99.90
47350;DHT22;33088;51.982;5.872;2022-10-17T01:48:21;13.80;99.90
47350;DHT22;33088;51.982;5.872;2022-10-17T01:50:58;13.90;99.90
47350;DHT22;33088;51.982;5.872;2022-10-17T01:53:47;13.90;99.90
47350;DHT22;33088;51.982;5.872;2022-10-17T01:56:13;13.80;99.90
47350;DHT22;33088;51.982;5.872;2022-10-17T01:58:49;13.90;99.90
47350;DHT22;33088;51.982;5.872;2022-10-17T02:01:17;13.80;99.90
47350;DHT22;33088;51.982;5.872;2022-10-17T02:03:45;13.80;99.90
47350;DHT22;33088;51.982;5.872;2022-10-17T02:06:13;13.80;99.90
47350;DHT22;33088;51.982;5.872;2022-10-17T02:08:45;14.00;99.90
47350;DHT22;33088;51.982;5.872;2022-10-17T02:11:18;13.90;99.90
47350;DHT22;33088;51.982;5.872;2022-10-17T02:16:56;14.00;99.90
47350;DHT22;33088;51.982;5.872;2022-10-17T02:25:08;14.00;99.90
47350;DHT22;33088;51.982;5.872;2022-10-17T02:30:28;14.00;99.90
47350;DHT22;33088;51.982;5.872;2022-10-17T02:33:00;14.00;99.90
47350;DHT22;33088;51.982;5.872;2022-10-17T02:35:30;14.00;99.90
47350;DHT22;33088;51.982;5.872;2022-10-17T02:37:58;14.00;99.90
47350;DHT22;33088;51.982;5.872;2022-10-17T02:40:26;14.00;99.90
47350;DHT22;33088;51.982;5.872;2022-10-17T02:42:55;14.00;99.90
47350;DHT22;33088;51.982;5.872;2022-10-17T02:45:25;14.00;99.90
47350;DHT22;33088;51.982;5.872;2022-10-17T02:48:25;14.00;99.90
47350;DHT22;33088;51.982;5.872;2022-10-17T02:53:52;14.00;99.90
47350;DHT22;33088;51.982;5.872;2022-10-17T02:56:20;14.00;99.90
47350;DHT22;33088;51.982;5.872;2022-10-17T02:58:53;14.00;99.90
47350;DHT22;33088;51.982;5.872;2022-10-17T03:01:20;14.00;99.90
47350;DHT22;33088;51.982;5.872;2022-10-17T03:03:46;14.00;99.90
47350;DHT22;33088;51.982;5.872;2022-10-17T03:06:12;14.00;99.90
47350;DHT22;33088;51.982;5.872;2022-10-17T03:08:38;14.10;99.90
47350;DHT22;33088;51.982;5.872;2022-10-17T03:11:04;14.10;99.90
47350;DHT22;33088;51.982;5.872;2022-10-17T03:13:32;14.10;99.90
47350;DHT22;33088;51.982;5.872;2022-10-17T03:15:59;14.10;99.90
47350;DHT22;33088;51.982;5.872;2022-10-17T03:18:24;14.10;99.90
47350;DHT22;33088;51.982;5.872;2022-10-17T03:20:55;14.10;99.90
47350;DHT22;33088;51.982;5.872;2022-10-17T03:23:20;14.20;99.90
47350;DHT22;33088;51.982;5.872;2022-10-17T03:25:46;14.20;99.90
47350;DHT22;33088;51.982;5.872;2022-10-17T03:28:13;14.20;99.90
47350;DHT22;33088;51.982;5.872;2022-10-17T03:30:39;14.20;99.90
47350;DHT22;33088;51.982;5.872;2022-10-17T03:33:05;14.20;99.90
47350;DHT22;33088;51.982;5.872;2022-10-17T03:35:31;14.10;99.90
47350;DHT22;33088;51.982;5.872;2022-10-17T03:37:57;14.10;99.90
47350;DHT22;33088;51.982;5.872;2022-10-17T03:40:25;14.10;99.90
47350;DHT22;33088;51.982;5.872;2022-10-17T03:42:51;14.00;99.90
47350;DHT22;33088;51.982;5.872;2022-10-17T03:45:17;14.00;99.90
47350;DHT22;33088;51.982;5.872;2022-10-17T03:47:44;13.90;99.90
47350;DHT22;33088;51.982;5.872;2022-10-17T03:50:10;13.90;99.90
47350;DHT22;33088;51.982;5.872;2022-10-17T03:52:37;13.90;99.90
47350;DHT22;33088;51.982;5.872;2022-10-17T03:55:03;14.00;99.90
47350;DHT22;33088;51.982;5.872;2022-10-17T03:57:29;14.10;99.90
47350;DHT22;33088;51.982;5.872;2022-10-17T03:59:55;14.10;99.90
47350;DHT22;33088;51.982;5.872;2022-10-17T04:02:20;14.10;99.90
47350;DHT22;33088;51.982;5.872;2022-10-17T04:04:48;14.20;99.90
47350;DHT22;33088;51.982;5.872;2022-10-17T04:07:14;14.10;99.90
47350;DHT22;33088;51.982;5.872;2022-10-17T04:09:42;14.20;99.90
47350;DHT22;33088;51.982;5.872;2022-10-17T04:12:15;14.10;99.90
47350;DHT22;33088;51.982;5.872;2022-10-17T04:14:42;14.00;99.90
47350;DHT22;33088;51.982;5.872;2022-10-17T04:17:08;14.10;99.90
47350;DHT22;33088;51.982;5.872;2022-10-17T04:19:35;14.20;99.90
47350;DHT22;33088;51.982;5.872;2022-10-17T04:22:01;14.00;99.90
47350;DHT22;33088;51.982;5.872;2022-10-17T04:24:29;14.00;99.90
47350;DHT22;33088;51.982;5.872;2022-10-17T04:27:24;14.00;99.90
47350;DHT22;33088;51.982;5.872;2022-10-17T04:29:50;14.00;99.90
47350;DHT22;33088;51.982;5.872;2022-10-17T04:32:20;14.00;99.90
47350;DHT22;33088;51.982;5.872;2022-10-17T04:34:50;14.10;99.90
47350;DHT22;33088;51.982;5.872;2022-10-17T04:37:18;14.10;99.90
47350;DHT22;33088;51.982;5.872;2022-10-17T04:39:45;14.10;99.90
47350;DHT22;33088;51.982;5.872;2022-10-17T04:42:11;14.10;99.90
47350;DHT22;33088;51.982;5.872;2022-10-17T04:44:36;14.20;99.90
47350;DHT22;33088;51.982;5.872;2022-10-17T04:47:02;14.20;99.90
47350;DHT22;33088;51.982;5.872;2022-10-17T04:49:28;14.00;99.90
47350;DHT22;33088;51.982;5.872;2022-10-17T04:51:59;14.40;99.90
47350;DHT22;33088;51.982;5.872;2022-10-17T04:54:30;14.10;99.90
47350;DHT22;33088;51.982;5.872;2022-10-17T04:57:03;14.00;99.90
47350;DHT22;33088;51.982;5.872;2022-10-17T04:59:29;14.10;99.90
47350;DHT22;33088;51.982;5.872;2022-10-17T05:02:10;14.10;99.90
47350;DHT22;33088;51.982;5.872;2022-10-17T05:04:36;14.20;99.90
47350;DHT22;33088;51.982;5.872;2022-10-17T05:07:02;14.10;99.90
47350;DHT22;33088;51.982;5.872;2022-10-17T05:09:46;14.20;99.90
47350;DHT22;33088;51.982;5.872;2022-10-17T05:12:11;14.20;99.90
47350;DHT22;33088;51.982;5.872;2022-10-17T05:14:41;14.20;99.90
47350;DHT22;33088;51.982;5.872;2022-10-17T05:17:07;14.20;99.90
47350;DHT22;33088;51.982;5.872;2022-10-17T05:19:33;14.20;99.90
47350;DHT22;33088;51.982;5.872;2022-10-17T05:21:59;14.20;99.90
47350;DHT22;33088;51.982;5.872;2022-10-17T05:24:25;14.20;99.90
47350;DHT22;33088;51.982;5.872;2022-10-17T05:26:52;14.20;99.90
47350;DHT22;33088;51.982;5.872;2022-10-17T05:29:17;14.20;99.90
47350;DHT22;33088;51.982;5.872;2022-10-17T05:31:49;14.20;99.90
47350;DHT22;33088;51.982;5.872;2022-10-17T05:34:14;14.20;99.90
47350;DHT22;33088;51.982;5.872;2022-10-17T05:36:41;14.20;99.90
47350;DHT22;33088;51.982;5.872;2022-10-17T05:39:07;14.20;99.90
47350;DHT22;33088;51.982;5.872;2022-10-17T05:41:34;14.30;99.90
47350;DHT22;33088;51.982;5.872;2022-10-17T05:43:59;14.30;99.90
47350;DHT22;33088;51.982;5.872;2022-10-17T05:46:37;14.30;99.90
47350;DHT22;33088;51.982;5.872;2022-10-17T05:49:03;14.30;99.90
47350;DHT22;33088;51.982;5.872;2022-10-17T05:51:32;14.50;99.90
47350;DHT22;33088;51.982;5.872;2022-10-17T05:54:00;14.40;99.90
47350;DHT22;33088;51.982;5.872;2022-10-17T05:56:27;14.30;99.90
47350;DHT22;33088;51.982;5.872;2022-10-17T05:58:53;14.30;99.90
47350;DHT22;33088;51.982;5.872;2022-10-17T06:01:29;14.30;99.90
47350;DHT22;33088;51.982;5.872;2022-10-17T06:03:55;14.20;99.90
47350;DHT22;33088;51.982;5.872;2022-10-17T06:06:21;14.20;99.90
47350;DHT22;33088;51.982;5.872;2022-10-17T06:08:47;14.30;99.90
47350;DHT22;33088;51.982;5.872;2022-10-17T06:11:18;14.30;99.90
47350;DHT22;33088;51.982;5.872;2022-10-17T06:13:44;14.40;99.90
47350;DHT22;33088;51.982;5.872;2022-10-17T06:16:16;14.40;99.90
47350;DHT22;33088;51.982;5.872;2022-10-17T06:18:43;14.40;99.90
47350;DHT22;33088;51.982;5.872;2022-10-17T06:21:10;14.40;99.90
47350;DHT22;33088;51.982;5.872;2022-10-17T06:23:41;14.50;99.90
47350;DHT22;33088;51.982;5.872;2022-10-17T06:26:13;14.50;99.90
47350;DHT22;33088;51.982;5.872;2022-10-17T06:28:39;14.40;99.90
47350;DHT22;33088;51.982;5.872;2022-10-17T06:31:07;14.50;99.90
47350;DHT22;33088;51.982;5.872;2022-10-17T06:33:33;14.40;99.90
47350;DHT22;33088;51.982;5.872;2022-10-17T06:36:01;14.50;99.90
47350;DHT22;33088;51.982;5.872;2022-10-17T06:38:28;14.40;99.90
47350;DHT22;33088;51.982;5.872;2022-10-17T06:41:08;14.50;99.90
47350;DHT22;33088;51.982;5.872;2022-10-17T06:43:37;14.50;99.90
47350;DHT22;33088;51.982;5.872;2022-10-17T06:46:39;14.60;99.90
47350;DHT22;33088;51.982;5.872;2022-10-17T06:49:08;14.80;99.90
47350;DHT22;33088;51.982;5.872;2022-10-17T06:51:53;14.70;99.90
47350;DHT22;33088;51.982;5.872;2022-10-17T06:54:25;14.70;99.90
47350;DHT22;33088;51.982;5.872;2022-10-17T06:57:18;14.70;99.90
47350;DHT22;33088;51.982;5.872;2022-10-17T06:59:59;14.70;99.90
47350;DHT22;33088;51.982;5.872;2022-10-17T07:02:31;14.80;99.90
47350;DHT22;33088;51.982;5.872;2022-10-17T07:04:59;14.80;99.90
47350;DHT22;33088;51.982;5.872;2022-10-17T07:07:25;14.90;99.90
47350;DHT22;33088;51.982;5.872;2022-10-17T07:09:51;14.90;99.90
47350;DHT22;33088;51.982;5.872;2022-10-17T07:12:18;14.90;99.90
47350;DHT22;33088;51.982;5.872;2022-10-17T07:14:44;15.00;99.90
47350;DHT22;33088;51.982;5.872;2022-10-17T07:17:12;15.00;99.90
47350;DHT22;33088;51.982;5.872;2022-10-17T07:19:38;15.10;99.90
47350;DHT22;33088;51.982;5.872;2022-10-17T07:22:06;15.10;99.90
47350;DHT22;33088;51.982;5.872;2022-10-17T07:24:32;15.10;99.90
47350;DHT22;33088;51.982;5.872;2022-10-17T07:27:10;15.10;99.90
47350;DHT22;33088;51.982;5.872;2022-10-17T07:29:36;15.20;99.90
47350;DHT22;33088;51.982;5.872;2022-10-17T07:32:09;15.20;99.90
47350;DHT22;33088;51.982;5.872;2022-10-17T07:34:35;15.40;99.90
47350;DHT22;33088;51.982;5.872;2022-10-17T07:37:00;15.20;99.90
47350;DHT22;33088;51.982;5.872;2022-10-17T07:39:27;15.50;99.90
47350;DHT22;33088;51.982;5.872;2022-10-17T07:41:53;15.60;99.90
47350;DHT22;33088;51.982;5.872;2022-10-17T07:44:20;15.90;99.90
47350;DHT22;33088;51.982;5.872;2022-10-17T07:46:49;15.70;99.90
47350;DHT22;33088;51.982;5.872;2022-10-17T07:49:15;15.80;99.90
47350;DHT22;33088;51.982;5.872;2022-10-17T07:51:41;15.80;99.90
47350;DHT22;33088;51.982;5.872;2022-10-17T07:54:06;15.80;99.90
47350;DHT22;33088;51.982;5.872;2022-10-17T07:56:32;15.80;99.90
47350;DHT22;33088;51.982;5.872;2022-10-17T07:58:58;15.70;99.90
47350;DHT22;33088;51.982;5.872;2022-10-17T08:01:24;15.70;99.90
47350;DHT22;33088;51.982;5.872;2022-10-17T08:03:50;15.70;99.90
47350;DHT22;33088;51.982;5.872;2022-10-17T08:06:16;15.70;99.90
47350;DHT22;33088;51.982;5.872;2022-10-17T08:08:42;15.70;99.90
47350;DHT22;33088;51.982;5.872;2022-10-17T08:11:10;15.60;99.90
47350;DHT22;33088;51.982;5.872;2022-10-17T08:13:37;15.70;99.90
47350;DHT22;33088;51.982;5.872;2022-10-17T08:16:07;15.70;99.90
47350;DHT22;33088;51.982;5.872;2022-10-17T08:18:34;15.80;99.90
47350;DHT22;33088;51.982;5.872;2022-10-17T08:21:03;15.90;99.90
47350;DHT22;33088;51.982;5.872;2022-10-17T08:23:31;15.90;99.90
47350;DHT22;33088;51.982;5.872;2022-10-17T08:26:05;15.90;99.90
47350;DHT22;33088;51.982;5.872;2022-10-17T08:28:41;15.90;99.90
47350;DHT22;33088;51.982;5.872;2022-10-17T08:31:09;15.80;99.90
47350;DHT22;33088;51.982;5.872;2022-10-17T08:33:35;15.70;99.90
47350;DHT22;33088;51.982;5.872;2022-10-17T08:36:03;15.70;99.90
47350;DHT22;33088;51.982;5.872;2022-10-17T08:38:30;15.60;99.90
47350;DHT22;33088;51.982;5.872;2022-10-17T08:41:03;15.60;99.90
47350;DHT22;33088;51.982;5.872;2022-10-17T08:46:20;15.60;99.90
47350;DHT22;33088;51.982;5.872;2022-10-17T08:48:47;15.60;99.90
47350;DHT22;33088;51.982;5.872;2022-10-17T08:51:20;15.60;99.90
47350;DHT22;33088;51.982;5.872;2022-10-17T08:56:24;15.60;99.90
47350;DHT22;33088;51.982;5.872;2022-10-17T08:58:50;15.60;99.90
47350;DHT22;33088;51.982;5.872;2022-10-17T09:01:53;15.60;99.90
47350;DHT22;33088;51.982;5.872;2022-10-17T09:07:24;15.70;99.90
47350;DHT22;33088;51.982;5.872;2022-10-17T09:10:17;15.70;99.90
47350;DHT22;33088;51.982;5.872;2022-10-17T09:13:09;15.70;99.90
47350;DHT22;33088;51.982;5.872;2022-10-17T09:16:23;15.70;99.90
47350;DHT22;33088;51.982;5.872;2022-10-17T09:19:17;15.70;99.90
47350;DHT22;33088;51.982;5.872;2022-10-17T09:21:58;15.70;99.90
47350;DHT22;33088;51.982;5.872;2022-10-17T09:24:50;15.80;99.90
47350;DHT22;33088;51.982;5.872;2022-10-17T09:27:23;15.80;99.90
47350;DHT22;33088;51.982;5.872;2022-10-17T09:30:00;15.90;99.90
47350;DHT22;33088;51.982;5.872;2022-10-17T09:32:27;15.80;99.90
47350;DHT22;33088;51.982;5.872;2022-10-17T09:34:53;15.80;99.90
47350;DHT22;33088;51.982;5.872;2022-10-17T09:37:23;15.80;99.90
47350;DHT22;33088;51.982;5.872;2022-10-17T09:39:49;15.80;99.90
47350;DHT22;33088;51.982;5.872;2022-10-17T09:42:17;15.80;99.90
47350;DHT22;33088;51.982;5.872;2022-10-17T09:45:35;15.80;99.90
47350;DHT22;33088;51.982;5.872;2022-10-17T09:50:29;15.80;99.90
47350;DHT22;33088;51.982;5.872;2022-10-17T09:52:56;15.80;99.90
47350;DHT22;33088;51.982;5.872;2022-10-17T09:55:37;15.80;99.90
47350;DHT22;33088;51.982;5.872;2022-10-17T09:58:06;15.80;99.90
47350;DHT22;33088;51.982;5.872;2022-10-17T10:00:41;15.90;99.90
47350;DHT22;33088;51.982;5.872;2022-10-17T10:05:40;15.90;99.90
47350;DHT22;33088;51.982;5.872;2022-10-17T10:08:15;16.00;99.90
47350;DHT22;33088;51.982;5.872;2022-10-17T10:10:42;15.90;99.90
47350;DHT22;33088;51.982;5.872;2022-10-17T10:13:17;16.00;99.90
47350;DHT22;33088;51.982;5.872;2022-10-17T10:15:46;16.00;99.90
47350;DHT22;33088;51.982;5.872;2022-10-17T10:23:42;16.00;99.90
47350;DHT22;33088;51.982;5.872;2022-10-17T10:29:32;16.00;99.90
47350;DHT22;33088;51.982;5.872;2022-10-17T10:32:14;16.00;99.90
47350;DHT22;33088;51.982;5.872;2022-10-17T10:34:48;15.90;99.90
47350;DHT22;33088;51.982;5.872;2022-10-17T10:37:35;16.00;99.90
47350;DHT22;33088;51.982;5.872;2022-10-17T10:40:05;16.00;99.90
47350;DHT22;33088;51.982;5.872;2022-10-17T10:42:37;16.00;99.90
47350;DHT22;33088;51.982;5.872;2022-10-17T10:45:19;16.00;99.90
47350;DHT22;33088;51.982;5.872;2022-10-17T10:51:06;16.10;99.90
47350;DHT22;33088;51.982;5.872;2022-10-17T10:53:47;16.20;99.90
47350;DHT22;33088;51.982;5.872;2022-10-17T10:56:24;16.20;99.90
47350;DHT22;33088;51.982;5.872;2022-10-17T10:59:05;16.10;99.90
47350;DHT22;33088;51.982;5.872;2022-10-17T11:01:40;16.30;99.90
47350;DHT22;33088;51.982;5.872;2022-10-17T11:04:36;16.40;99.90
47350;DHT22;33088;51.982;5.872;2022-10-17T11:07:19;16.30;99.90
47350;DHT22;33088;51.982;5.872;2022-10-17T11:09:59;16.30;99.90
47350;DHT22;33088;51.982;5.872;2022-10-17T11:12:34;16.30;99.90
47350;DHT22;33088;51.982;5.872;2022-10-17T11:15:02;16.30;99.90
47350;DHT22;33088;51.982;5.872;2022-10-17T11:17:37;16.30;99.90
47350;DHT22;33088;51.982;5.872;2022-10-17T11:20:09;16.30;99.90
47350;DHT22;33088;51.982;5.872;2022-10-17T11:22:53;16.30;99.90
47350;DHT22;33088;51.982;5.872;2022-10-17T11:25:33;16.30;99.90
47350;DHT22;33088;51.982;5.872;2022-10-17T11:28:01;16.30;99.90
47350;DHT22;33088;51.982;5.872;2022-10-17T11:30:38;16.40;99.90
47350;DHT22;33088;51.982;5.872;2022-10-17T11:33:06;16.40;99.90
47350;DHT22;33088;51.982;5.872;2022-10-17T11:35:38;16.40;99.90
47350;DHT22;33088;51.982;5.872;2022-10-17T11:41:01;16.50;99.90
47350;DHT22;33088;51.982;5.872;2022-10-17T11:43:33;16.50;99.90
47350;DHT22;33088;51.982;5.872;2022-10-17T11:46:16;16.50;99.90
47350;DHT22;33088;51.982;5.872;2022-10-17T11:51:41;16.60;99.90
47350;DHT22;33088;51.982;5.872;2022-10-17T11:54:18;16.60;99.90
47350;DHT22;33088;51.982;5.872;2022-10-17T12:05:01;16.70;99.90
47350;DHT22;33088;51.982;5.872;2022-10-17T12:07:50;16.60;99.90
47350;DHT22;33088;51.982;5.872;2022-10-17T12:13:51;16.60;99.90
47350;DHT22;33088;51.982;5.872;2022-10-17T12:18:45;16.50;99.90
47350;DHT22;33088;51.982;5.872;2022-10-17T12:21:11;16.50;99.90
47350;DHT22;33088;51.982;5.872;2022-10-17T12:23:37;16.50;99.90
47350;DHT22;33088;51.982;5.872;2022-10-17T12:26:07;16.60;99.90
47350;DHT22;33088;51.982;5.872;2022-10-17T12:49:38;16.80;99.90
47350;DHT22;33088;51.982;5.872;2022-10-17T12:52:14;16.70;99.90
47350;DHT22;33088;51.982;5.872;2022-10-17T12:54:47;16.70;99.90
47350;DHT22;33088;51.982;5.872;2022-10-17T12:57:29;16.70;99.90
47350;DHT22;33088;51.982;5.872;2022-10-17T12:59:56;16.70;99.90
47350;DHT22;33088;51.982;5.872;2022-10-17T13:02:24;16.80;99.90
47350;DHT22;33088;51.982;5.872;2022-10-17T13:04:57;16.80;99.90
47350;DHT22;33088;51.982;5.872;2022-10-17T13:07:23;16.80;99.90
47350;DHT22;33088;51.982;5.872;2022-10-17T13:09:50;16.80;99.90
47350;DHT22;33088;51.982;5.872;2022-10-17T13:12:22;16.90;99.90
47350;DHT22;33088;51.982;5.872;2022-10-17T13:14:50;16.90;99.90
47350;DHT22;33088;51.982;5.872;2022-10-17T13:17:23;16.70;99.90
47350;DHT22;33088;51.982;5.872;2022-10-17T13:19:48;16.70;99.90
47350;DHT22;33088;51.982;5.872;2022-10-17T13:22:21;16.70;99.90
47350;DHT22;33088;51.982;5.872;2022-10-17T13:24:48;16.70;99.90
47350;DHT22;33088;51.982;5.872;2022-10-17T13:29:51;16.80;99.90
47350;DHT22;33088;51.982;5.872;2022-10-17T13:32:17;16.70;99.90
47350;DHT22;33088;51.982;5.872;2022-10-17T13:34:43;16.80;99.90
47350;DHT22;33088;51.982;5.872;2022-10-17T13:37:13;16.80;99.90
47350;DHT22;33088;51.982;5.872;2022-10-17T13:39:42;17.10;99.90
47350;DHT22;33088;51.982;5.872;2022-10-17T13:42:28;17.00;99.90
47350;DHT22;33088;51.982;5.872;2022-10-17T13:44:55;17.00;99.90
47350;DHT22;33088;51.982;5.872;2022-10-17T13:47:31;16.90;99.90
47350;DHT22;33088;51.982;5.872;2022-10-17T13:49:58;16.90;99.90
47350;DHT22;33088;51.982;5.872;2022-10-17T13:52:26;16.90;99.90
47350;DHT22;33088;51.982;5.872;2022-10-17T13:54:53;16.90;99.90
47350;DHT22;33088;51.982;5.872;2022-10-17T13:57:29;16.90;99.90
47350;DHT22;33088;51.982;5.872;2022-10-17T13:59:58;17.10;99.90
47350;DHT22;33088;51.982;5.872;2022-10-17T14:02:34;16.80;99.90
47350;DHT22;33088;51.982;5.872;2022-10-17T14:07:51;16.80;99.90
47350;DHT22;33088;51.982;5.872;2022-10-17T14:12:56;16.90;99.90
47350;DHT22;33088;51.982;5.872;2022-10-17T14:15:26;16.90;99.90
47350;DHT22;33088;51.982;5.872;2022-10-17T14:18:01;16.90;99.90
47350;DHT22;33088;51.982;5.872;2022-10-17T14:20:27;16.90;99.90
47350;DHT22;33088;51.982;5.872;2022-10-17T14:22:55;16.90;99.90
47350;DHT22;33088;51.982;5.872;2022-10-17T14:25:38;16.90;99.90
47350;DHT22;33088;51.982;5.872;2022-10-17T14:33:10;17.00;99.90
47350;DHT22;33088;51.982;5.872;2022-10-17T14:35:36;16.90;99.90
47350;DHT22;33088;51.982;5.872;2022-10-17T14:38:05;17.00;99.90
47350;DHT22;33088;51.982;5.872;2022-10-17T14:40:32;16.90;99.90
47350;DHT22;33088;51.982;5.872;2022-10-17T14:43:05;17.00;99.90
47350;DHT22;33088;51.982;5.872;2022-10-17T14:45:36;17.00;99.90
47350;DHT22;33088;51.982;5.872;2022-10-17T14:48:13;17.00;99.90
47350;DHT22;33088;51.982;5.872;2022-10-17T14:50:39;17.00;99.90
47350;DHT22;33088;51.982;5.872;2022-10-17T14:55:36;17.10;99.90
47350;DHT22;33088;51.982;5.872;2022-10-17T14:58:16;17.10;99.90
47350;DHT22;33088;51.982;5.872;2022-10-17T15:00:41;17.10;99.90
47350;DHT22;33088;51.982;5.872;2022-10-17T15:03:07;17.10;99.90
47350;DHT22;33088;51.982;5.872;2022-10-17T15:05:34;17.10;99.90
47350;DHT22;33088;51.982;5.872;2022-10-17T15:07:59;17.10;99.90
47350;DHT22;33088;51.982;5.872;2022-10-17T15:10:33;17.00;99.90
47350;DHT22;33088;51.982;5.872;2022-10-17T15:13:00;17.00;99.90
47350;DHT22;33088;51.982;5.872;2022-10-17T15:15:27;17.00;99.90
47350;DHT22;33088;51.982;5.872;2022-10-17T15:17:53;16.90;99.90
47350;DHT22;33088;51.982;5.872;2022-10-17T15:20:20;16.90;99.90
47350;DHT22;33088;51.982;5.872;2022-10-17T15:22:53;16.90;99.90
47350;DHT22;33088;51.982;5.872;2022-10-17T15:25:19;16.90;99.90
47350;DHT22;33088;51.982;5.872;2022-10-17T15:27:45;16.90;99.90
47350;DHT22;33088;51.982;5.872;2022-10-17T15:30:20;17.00;99.90
47350;DHT22;33088;51.982;5.872;2022-10-17T15:32:47;16.90;99.90
47350;DHT22;33088;51.982;5.872;2022-10-17T15:35:13;16.90;99.90
47350;DHT22;33088;51.982;5.872;2022-10-17T15:37:39;16.90;99.90
47350;DHT22;33088;51.982;5.872;2022-10-17T15:40:13;16.90;99.90
47350;DHT22;33088;51.982;5.872;2022-10-17T15:42:39;16.90;99.90
47350;DHT22;33088;51.982;5.872;2022-10-17T15:45:05;16.90;99.90
47350;DHT22;33088;51.982;5.872;2022-10-17T15:47:32;16.90;99.90
47350;DHT22;33088;51.982;5.872;2022-10-17T15:49:59;16.80;99.90
47350;DHT22;33088;51.982;5.872;2022-10-17T15:52:25;16.80;99.90
47350;DHT22;33088;51.982;5.872;2022-10-17T15:54:52;16.80;99.90
47350;DHT22;33088;51.982;5.872;2022-10-17T15:57:19;16.80;99.90
47350;DHT22;33088;51.982;5.872;2022-10-17T15:59:45;16.80;99.90
47350;DHT22;33088;51.982;5.872;2022-10-17T16:02:13;16.80;99.90
47350;DHT22;33088;51.982;5.872;2022-10-17T16:04:39;16.70;99.90
47350;DHT22;33088;51.982;5.872;2022-10-17T16:07:04;16.70;99.90
47350;DHT22;33088;51.982;5.872;2022-10-17T16:09:32;16.60;99.90
47350;DHT22;33088;51.982;5.872;2022-10-17T16:11:59;16.60;99.90
47350;DHT22;33088;51.982;5.872;2022-10-17T16:14:25;16.60;99.90
47350;DHT22;33088;51.982;5.872;2022-10-17T16:16:51;16.50;99.90
47350;DHT22;33088;51.982;5.872;2022-10-17T16:19:17;16.50;99.90
47350;DHT22;33088;51.982;5.872;2022-10-17T16:21:43;16.50;99.90
47350;DHT22;33088;51.982;5.872;2022-10-17T16:24:10;16.50;99.90
47350;DHT22;33088;51.982;5.872;2022-10-17T16:26:39;16.40;99.90
47350;DHT22;33088;51.982;5.872;2022-10-17T16:29:05;16.40;99.90
47350;DHT22;33088;51.982;5.872;2022-10-17T16:31:33;16.40;99.90
47350;DHT22;33088;51.982;5.872;2022-10-17T16:34:00;16.40;99.90
47350;DHT22;33088;51.982;5.872;2022-10-17T16:36:26;16.40;99.90
47350;DHT22;33088;51.982;5.872;2022-10-17T16:38:52;16.40;99.90
47350;DHT22;33088;51.982;5.872;2022-10-17T16:41:33;16.50;99.90
47350;DHT22;33088;51.982;5.872;2022-10-17T16:44:01;16.40;99.90
47350;DHT22;33088;51.982;5.872;2022-10-17T16:46:28;16.20;99.90
47350;DHT22;33088;51.982;5.872;2022-10-17T16:48:55;16.30;99.90
47350;DHT22;33088;51.982;5.872;2022-10-17T16:51:21;16.30;99.90
47350;DHT22;33088;51.982;5.872;2022-10-17T16:53:49;16.30;99.90
47350;DHT22;33088;51.982;5.872;2022-10-17T16:56:20;16.30;99.90
47350;DHT22;33088;51.982;5.872;2022-10-17T16:58:46;16.30;99.90
47350;DHT22;33088;51.982;5.872;2022-10-17T17:01:15;16.30;99.90
47350;DHT22;33088;51.982;5.872;2022-10-17T17:03:42;16.30;99.90
47350;DHT22;33088;51.982;5.872;2022-10-17T17:06:15;16.30;99.90
47350;DHT22;33088;51.982;5.872;2022-10-17T17:08:41;16.30;99.90
47350;DHT22;33088;51.982;5.872;2022-10-17T17:11:09;16.30;99.90
47350;DHT22;33088;51.982;5.872;2022-10-17T17:13:35;16.30;99.90
47350;DHT22;33088;51.982;5.872;2022-10-17T17:16:12;16.30;99.90
47350;DHT22;33088;51.982;5.872;2022-10-17T17:18:39;16.20;99.90
47350;DHT22;33088;51.982;5.872;2022-10-17T17:21:07;16.20;99.90
47350;DHT22;33088;51.982;5.872;2022-10-17T17:23:35;16.20;99.90
47350;DHT22;33088;51.982;5.872;2022-10-17T17:26:11;16.10;99.90
47350;DHT22;33088;51.982;5.872;2022-10-17T17:28:37;16.10;99.90
47350;DHT22;33088;51.982;5.872;2022-10-17T17:31:09;16.10;99.90
47350;DHT22;33088;51.982;5.872;2022-10-17T17:33:37;16.00;99.90
47350;DHT22;33088;51.982;5.872;2022-10-17T17:36:03;16.00;99.90
47350;DHT22;33088;51.982;5.872;2022-10-17T17:38:30;16.00;99.90
47350;DHT22;33088;51.982;5.872;2022-10-17T17:40:56;16.00;99.90
47350;DHT22;33088;51.982;5.872;2022-10-17T17:43:22;16.00;99.90
47350;DHT22;33088;51.982;5.872;2022-10-17T17:45:48;15.90;99.90
47350;DHT22;33088;51.982;5.872;2022-10-17T17:48:14;15.90;99.90